Time;durP1;ratioP1;P1;durP2;ratioP2;P2;SDS_P1;SDS_P2;PMS_P1;PMS_P2;Temp;Humidity;BMP_temperature;BMP_pressure;BME280_temperature;BME280_humidity;BME280_pressure;Samples;Min_cycle;Max_cycle;Signal;HPM_P1;HPM_P2
2022/12/22 03:27:15;;;;;;;;;;;;;;;15.66;53.00;100135.28;7257601;19;153151;-56
2022/12/22 03:29:42;;;;;;;;;;;;;;;15.66;52.56;100151.16;7252643;19;154661;-56
2022/12/22 03:32:08;;;;;;;;;;;;;;;15.67;52.82;100163.97;7252802;19;154486;-56
2022/12/22 03:34:35;;;;;;;;;;;;;;;15.68;52.73;100185.09;7254087;19;154723;-56
2022/12/22 03:37:02;;;;;;;;;;;;;;;15.67;52.65;100175.91;7245189;19;153887;-56
2022/12/22 03:39:29;;;;;;;;;;;;;;;15.67;52.75;100184.25;7253278;19;154128;-56
2022/12/22 03:46:56;;;;;;;;;;;;;;;15.68;52.73;100191.47;7222297;19;153217;-56
2022/12/22 03:49:25;;;;;;;;;;;;;;;15.67;52.66;100198.19;7254249;19;153604;-56
2022/12/22 03:51:52;;;;;;;;;;;;;;;15.67;52.92;100200.16;7242737;19;153448;-56
2022/12/22 03:54:20;;;;;;;;;;;;;;;15.67;52.66;100208.50;7247704;19;154461;-56
2022/12/22 03:56:47;;;;;;;;;;;;;;;15.66;52.52;100223.56;7241752;19;155030;-56
2022/12/22 03:59:14;;;;;;;;;;;;;;;15.68;52.71;100218.50;7247968;19;153555;-56
2022/12/22 04:01:42;;;;;;;;;;;;;;;15.66;52.63;100213.25;7247969;19;154542;-56
2022/12/22 04:04:10;;;;;;;;;;;;;;;15.65;52.54;100221.88;7250004;19;154525;-56
2022/12/22 04:06:37;;;;;;;;;;;;;;;15.66;52.66;100232.75;7249681;19;153272;-56
2022/12/22 04:09:05;;;;;;;;;;;;;;;15.66;52.68;100231.91;7250316;19;153624;-56
2022/12/22 04:14:02;;;;;;;;;;;;;;;15.65;52.67;100208.78;7251905;19;153348;-56
2022/12/22 04:16:29;;;;;;;;;;;;;;;15.65;52.46;100207.97;7249421;19;153310;-56
2022/12/22 04:18:56;;;;;;;;;;;;;;;15.65;52.92;100214.34;7250757;19;153018;-57
2022/12/22 04:21:23;;;;;;;;;;;;;;;15.65;52.82;100210.75;7246481;19;154654;-56
2022/12/22 04:23:50;;;;;;;;;;;;;;;15.64;52.85;100201.56;7248497;19;152734;-56
2022/12/22 04:26:18;;;;;;;;;;;;;;;15.64;52.70;100209.91;7248272;19;154200;-56
2022/12/22 04:28:45;;;;;;;;;;;;;;;15.64;52.67;100206.28;7251383;19;154325;-56
2022/12/22 04:31:12;;;;;;;;;;;;;;;15.64;52.46;100198.78;7248217;19;154959;-57
2022/12/22 04:33:39;;;;;;;;;;;;;;;15.62;52.96;100192.69;7256370;19;153540;-57
2022/12/22 04:36:06;;;;;;;;;;;;;;;15.64;52.78;100203.50;7246373;19;153776;-56
2022/12/22 04:38:34;;;;;;;;;;;;;;;15.63;52.55;100202.66;7248096;19;152065;-56
2022/12/22 04:41:01;;;;;;;;;;;;;;;15.63;52.75;100197.09;7250781;19;154002;-56
2022/12/22 04:43:28;;;;;;;;;;;;;;;15.64;52.90;100204.34;7248770;19;155251;-56
2022/12/22 04:45:55;;;;;;;;;;;;;;;15.61;52.55;100210.50;7227838;19;152431;-56
2022/12/22 04:48:23;;;;;;;;;;;;;;;15.63;52.77;100224.13;7236283;19;154394;-56
2022/12/22 04:50:51;;;;;;;;;;;;;;;15.63;52.70;100213.81;7239721;19;153317;-56
2022/12/22 04:53:18;;;;;;;;;;;;;;;15.62;52.67;100226.09;7242150;19;153637;-56
2022/12/22 04:55:45;;;;;;;;;;;;;;;15.63;52.83;100216.59;7249595;19;152759;-56
2022/12/22 04:58:12;;;;;;;;;;;;;;;15.63;52.34;100213.81;7243237;19;153931;-56
2022/12/22 05:00:39;;;;;;;;;;;;;;;15.63;52.54;100213.81;7244675;19;154546;-56
2022/12/22 05:03:06;;;;;;;;;;;;;;;15.63;52.63;100222.16;7246878;19;153768;-56
2022/12/22 05:05:34;;;;;;;;;;;;;;;15.63;52.56;100224.94;7245336;19;154135;-56
2022/12/22 05:08:02;;;;;;;;;;;;;;;15.63;52.56;100224.13;7243201;19;155395;-56
2022/12/22 05:10:29;;;;;;;;;;;;;;;15.63;52.52;100224.13;7248833;19;153812;-56
2022/12/22 05:12:56;;;;;;;;;;;;;;;15.63;52.78;100229.69;7249488;19;154293;-56
2022/12/22 05:15:24;;;;;;;;;;;;;;;15.62;52.70;100228.88;7258706;19;153219;-57
2022/12/22 05:17:51;;;;;;;;;;;;;;;15.63;52.79;100233.31;7246903;19;153557;-56
2022/12/22 05:20:18;;;;;;;;;;;;;;;15.63;52.50;100221.31;7249172;19;154641;-57
2022/12/22 05:22:45;;;;;;;;;;;;;;;15.63;52.63;100221.31;7244367;19;153452;-56
2022/12/22 05:25:15;;;;;;;;;;;;;;;15.62;52.44;100212.19;7248117;19;153296;-56
2022/12/22 05:27:43;;;;;;;;;;;;;;;15.61;52.29;100210.50;7249904;19;153991;-57
2022/12/22 05:30:10;;;;;;;;;;;;;;;15.62;52.45;100228.88;7247974;19;154903;-56
2022/12/22 05:32:37;;;;;;;;;;;;;;;15.61;52.58;100241.13;7247382;19;153764;-56
2022/12/22 05:35:04;;;;;;;;;;;;;;;15.62;52.35;100239.19;7248633;19;153652;-57
2022/12/22 05:37:31;;;;;;;;;;;;;;;15.60;52.62;100235.84;7254673;19;154027;-56
2022/12/22 05:39:58;;;;;;;;;;;;;;;15.59;52.70;100229.44;7247460;19;154171;-56
2022/12/22 05:44:55;;;;;;;;;;;;;;;15.59;52.48;100229.44;7245749;19;154716;-56
2022/12/22 05:47:22;;;;;;;;;;;;;;;15.60;52.49;100222.75;7228534;19;152823;-56
2022/12/22 05:49:49;;;;;;;;;;;;;;;15.60;52.49;100228.31;7244108;19;154355;-56
2022/12/22 05:52:16;;;;;;;;;;;;;;;15.60;52.48;100219.97;7245545;19;154311;-57
2022/12/22 05:54:43;;;;;;;;;;;;;;;15.60;52.75;100211.63;7248986;19;153334;-56
2022/12/22 05:57:09;;;;;;;;;;;;;;;15.60;52.66;100208.00;7249857;19;153909;-56
2022/12/22 05:59:36;;;;;;;;;;;;;;;15.61;52.45;100209.66;7256456;19;153166;-56
2022/12/22 06:02:03;;;;;;;;;;;;;;;15.60;52.63;100214.41;7251669;19;153448;-56
2022/12/22 06:04:30;;;;;;;;;;;;;;;15.58;52.33;100211.91;7254545;19;154597;-56
2022/12/22 06:06:57;;;;;;;;;;;;;;;15.61;52.53;100226.38;7252199;19;156150;-56
2022/12/22 06:09:24;;;;;;;;;;;;;;;15.60;52.55;100235.84;7250423;19;154682;-56
2022/12/22 06:11:51;;;;;;;;;;;;;;;15.57;52.62;100226.97;7256986;19;154886;-56
2022/12/22 06:14:18;;;;;;;;;;;;;;;15.60;52.24;100233.06;7254981;19;152347;-56
2022/12/22 06:16:45;;;;;;;;;;;;;;;15.60;52.32;100242.25;7254404;19;153428;-56
2022/12/22 06:19:11;;;;;;;;;;;;;;;15.59;52.62;100240.59;7256311;19;152891;-56
2022/12/22 06:21:38;;;;;;;;;;;;;;;15.58;52.74;100242.53;7258670;19;153846;-56
2022/12/22 06:24:05;;;;;;;;;;;;;;;15.60;52.63;100230.28;7254401;19;152580;-56
2022/12/22 06:26:32;;;;;;;;;;;;;;;15.58;52.42;100227.78;7251134;19;154882;-56
2022/12/22 06:28:59;;;;;;;;;;;;;;;15.59;52.44;100232.22;7253827;19;154288;-56
2022/12/22 06:31:26;;;;;;;;;;;;;;;15.59;52.64;100237.78;7255172;19;152562;-56
2022/12/22 06:33:53;;;;;;;;;;;;;;;15.58;52.21;100239.75;7253130;19;153426;-56
2022/12/22 06:36:20;;;;;;;;;;;;;;;15.58;52.32;100252.84;7251597;19;153723;-56
2022/12/22 06:38:47;;;;;;;;;;;;;;;15.57;52.51;100252.03;7255160;19;153370;-56
2022/12/22 06:41:14;;;;;;;;;;;;;;;15.57;52.48;100249.25;7254149;19;154598;-56
2022/12/22 06:43:41;;;;;;;;;;;;;;;15.58;52.57;100256.44;7260760;19;154238;-56
2022/12/22 06:46:07;;;;;;;;;;;;;;;15.57;52.17;100252.03;7252494;19;153732;-56
2022/12/22 06:48:35;;;;;;;;;;;;;;;15.58;52.62;100247.25;7252491;19;153742;-56
2022/12/22 06:51:02;;;;;;;;;;;;;;;15.57;52.59;100249.25;7251434;19;152817;-56
2022/12/22 06:53:29;;;;;;;;;;;;;;;15.57;52.51;100260.38;7251600;19;154348;-56
2022/12/22 06:55:55;;;;;;;;;;;;;;;15.57;52.33;100251.19;7253340;19;153520;-56
2022/12/22 06:58:22;;;;;;;;;;;;;;;15.56;52.59;100252.31;7255502;19;153751;-57
2022/12/22 07:00:50;;;;;;;;;;;;;;;15.57;52.64;100237.28;7253306;19;153161;-58
2022/12/22 07:03:17;;;;;;;;;;;;;;;15.56;52.35;100236.44;7252356;19;154648;-56
2022/12/22 07:05:44;;;;;;;;;;;;;;;15.56;52.25;100233.66;7258052;19;154272;-56
2022/12/22 07:08:11;;;;;;;;;;;;;;;15.56;52.16;100224.47;7249394;19;154250;-56
2022/12/22 07:15:38;;;;;;;;;;;;;;;15.55;52.53;100229.22;7253799;19;154424;-56
2022/12/22 07:18:05;;;;;;;;;;;;;;;15.56;52.35;100233.66;7253906;19;153457;-56
2022/12/22 07:20:32;;;;;;;;;;;;;;;15.56;52.53;100230.03;7251652;19;154655;-56
2022/12/22 07:22:59;;;;;;;;;;;;;;;15.55;52.33;100232.00;7250399;19;153268;-56
2022/12/22 07:25:26;;;;;;;;;;;;;;;15.56;52.19;100230.03;7260829;19;153295;-56
2022/12/22 07:27:53;;;;;;;;;;;;;;;15.55;52.46;100234.78;7252272;19;154646;-56
2022/12/22 07:30:20;;;;;;;;;;;;;;;15.55;52.15;100236.72;7254302;19;154853;-58
2022/12/22 07:32:47;;;;;;;;;;;;;;;15.54;52.41;100238.69;7251395;19;153931;-56
2022/12/22 07:35:13;;;;;;;;;;;;;;;15.55;52.31;100236.72;7250824;19;153782;-56
2022/12/22 07:37:40;;;;;;;;;;;;;;;15.54;52.40;100238.69;7251516;19;153742;-57
2022/12/22 07:40:08;;;;;;;;;;;;;;;15.55;52.07;100245.06;7250156;19;154828;-57
2022/12/22 07:45:05;;;;;;;;;;;;;;;15.53;52.55;100231.47;7252027;19;154387;-57
2022/12/22 07:47:32;;;;;;;;;;;;;;;15.53;52.25;100236.19;7258746;19;153357;-57
2022/12/22 07:52:31;;;;;;;;;;;;;;;15.54;52.34;100243.41;7251702;19;155112;-57
2022/12/22 07:54:58;;;;;;;;;;;;;;;15.53;52.10;100245.38;7249208;19;154932;-58
2022/12/22 07:57:25;;;;;;;;;;;;;;;15.53;52.27;100242.59;7251701;19;153976;-56
2022/12/22 07:59:52;;;;;;;;;;;;;;;15.52;52.09;100238.16;7251915;19;153016;-57
2022/12/22 08:02:19;;;;;;;;;;;;;;;15.53;52.46;100245.38;7252139;19;153828;-57
2022/12/22 08:04:46;;;;;;;;;;;;;;;15.53;52.11;100247.34;7251702;19;153195;-57
2022/12/22 08:07:13;;;;;;;;;;;;;;;15.53;52.27;100241.78;7247242;19;153997;-57
2022/12/22 08:09:40;;;;;;;;;;;;;;;15.52;52.37;100237.31;7258900;19;153732;-57
2022/12/22 08:12:07;;;;;;;;;;;;;;;15.52;52.28;100237.31;7252933;19;155145;-57
2022/12/22 08:14:34;;;;;;;;;;;;;;;15.51;52.12;100233.69;7248181;19;153617;-57
2022/12/22 08:17:01;;;;;;;;;;;;;;;15.52;52.11;100226.19;7253190;19;154153;-57
2022/12/22 08:19:28;;;;;;;;;;;;;;;15.52;52.01;100223.41;7251440;19;152786;-57
2022/12/22 08:21:55;;;;;;;;;;;;;;;15.52;52.18;100203.91;7247439;19;154075;-57
2022/12/22 08:24:22;;;;;;;;;;;;;;;15.52;52.10;100206.69;7250331;19;152885;-57
2022/12/22 08:26:51;;;;;;;;;;;;;;;15.52;51.99;100212.25;7250303;19;153645;-57
2022/12/22 08:29:23;;;;;;;;;;;;;;;15.52;51.99;100195.56;7249271;19;154444;-57
2022/12/22 08:31:49;;;;;;;;;;;;;;;15.51;51.83;100193.91;7257425;19;154097;-57
2022/12/22 08:34:17;;;;;;;;;;;;;;;15.51;52.19;100191.94;7251884;19;155230;-57
2022/12/22 08:36:46;;;;;;;;;;;;;;;15.50;52.08;100186.63;7251556;19;153700;-57
2022/12/22 08:39:15;;;;;;;;;;;;;;;15.49;52.29;100191.34;7254418;19;153652;-57
2022/12/22 08:44:12;;;;;;;;;;;;;;;15.49;52.10;100182.22;7253204;19;154504;-57
2022/12/22 08:46:39;;;;;;;;;;;;;;;15.50;52.17;100193.06;7245705;19;152672;-57
2022/12/22 08:49:06;;;;;;;;;;;;;;;15.49;52.06;100190.56;7249223;19;153720;-57
2022/12/22 08:51:33;;;;;;;;;;;;;;;15.49;52.10;100190.56;7247434;19;153707;-57
2022/12/22 08:54:00;;;;;;;;;;;;;;;15.48;52.23;100184.16;7254612;19;153486;-57
2022/12/22 08:56:31;;;;;;;;;;;;;;;15.49;51.98;100187.78;7247898;19;153693;-57
2022/12/22 08:58:58;;;;;;;;;;;;;;;15.49;51.99;100183.00;7251032;19;153721;-57
2022/12/22 09:01:25;;;;;;;;;;;;;;;15.50;52.33;100181.06;7248363;19;152791;-57
2022/12/22 09:03:53;;;;;;;;;;;;;;;15.49;52.33;100174.66;7250444;19;153607;-57
2022/12/22 09:06:23;;;;;;;;;;;;;;;15.49;52.40;100171.06;7245760;19;153543;-57
2022/12/22 09:08:55;;;;;;;;;;;;;;;15.48;52.45;100167.47;7246725;19;153964;-57
2022/12/22 09:11:22;;;;;;;;;;;;;;;15.49;52.26;100162.72;7248903;19;153416;-57
2022/12/22 09:13:52;;;;;;;;;;;;;;;15.49;52.22;100168.28;7250045;19;153445;-57
2022/12/22 09:16:19;;;;;;;;;;;;;;;15.48;52.37;100173.03;7255881;19;154023;-57
2022/12/22 09:18:46;;;;;;;;;;;;;;;15.48;52.06;100164.66;7251064;19;154913;-57
2022/12/22 09:21:14;;;;;;;;;;;;;;;15.49;52.03;100169.09;7248462;19;153454;-57
2022/12/22 09:23:41;;;;;;;;;;;;;;;15.49;52.09;100169.09;7247902;19;153319;-57
2022/12/22 09:26:11;;;;;;;;;;;;;;;15.49;52.12;100171.88;7245915;19;153419;-57
2022/12/22 09:28:38;;;;;;;;;;;;;;;15.50;52.28;100168.00;7247071;19;154370;-57
2022/12/22 09:31:12;;;;;;;;;;;;;;;15.50;52.33;100161.56;7245390;19;153495;-57
2022/12/22 09:33:39;;;;;;;;;;;;;;;15.50;52.14;100168.00;7247123;19;153927;-57
2022/12/22 09:36:07;;;;;;;;;;;;;;;15.50;52.47;100159.66;7255069;19;153402;-57
2022/12/22 09:38:35;;;;;;;;;;;;;;;15.50;52.31;100158.78;7257751;19;154059;-57
2022/12/22 09:41:05;;;;;;;;;;;;;;;15.51;52.30;100155.75;7252184;19;153253;-57
2022/12/22 09:43:32;;;;;;;;;;;;;;;15.50;52.48;100145.75;7256606;19;153398;-57
2022/12/22 09:46:00;;;;;;;;;;;;;;;15.51;52.18;100141.84;7257154;19;154202;-57
2022/12/22 09:48:33;;;;;;;;;;;;;;;15.51;52.17;100138.22;7251630;19;154889;-57
2022/12/22 09:51:00;;;;;;;;;;;;;;;15.51;52.19;100139.06;7253285;19;153802;-58
2022/12/22 09:53:27;;;;;;;;;;;;;;;15.50;52.28;100137.38;7252345;19;154252;-57
2022/12/22 09:55:54;;;;;;;;;;;;;;;15.49;52.46;100130.13;7255322;19;155549;-58
2022/12/22 09:58:25;;;;;;;;;;;;;;;15.50;52.32;100131.81;7260650;19;153149;-57
2022/12/22 10:00:58;;;;;;;;;;;;;;;15.52;52.53;100128.75;7255691;19;155578;-57
2022/12/22 10:03:26;;;;;;;;;;;;;;;15.51;52.54;100116.78;7256116;19;152878;-57
2022/12/22 10:06:00;;;;;;;;;;;;;;;15.50;52.62;100115.13;7251348;19;153840;-57
2022/12/22 10:08:29;;;;;;;;;;;;;;;15.52;52.63;100118.44;7252986;19;154249;-57
2022/12/22 10:10:56;;;;;;;;;;;;;;;15.52;52.68;100114.84;7255778;19;154032;-57
2022/12/22 10:13:23;;;;;;;;;;;;;;;15.52;52.40;100098.13;7255036;19;153127;-57
2022/12/22 10:15:51;;;;;;;;;;;;;;;15.52;52.44;100110.09;7255089;19;153881;-57
2022/12/22 10:18:20;;;;;;;;;;;;;;;15.52;52.70;100104.53;7255782;19;153240;-57
2022/12/22 10:21:06;;;;;;;;;;;;;;;15.52;52.56;100107.31;7259966;19;153897;-57
2022/12/22 10:23:36;;;;;;;;;;;;;;;15.52;52.70;100096.19;7256105;19;152886;-57
2022/12/22 10:26:07;;;;;;;;;;;;;;;15.52;52.95;100087.84;7255116;19;154695;-57
2022/12/22 10:28:57;;;;;;;;;;;;;;;15.53;52.91;100089.50;7254694;19;154302;-57
2022/12/22 10:31:24;;;;;;;;;;;;;;;15.53;52.56;100094.22;7253853;19;154649;-57
2022/12/22 10:33:53;;;;;;;;;;;;;;;15.54;52.77;100084.72;7254385;19;154296;-57
2022/12/22 10:36:23;;;;;;;;;;;;;;;15.54;52.62;100088.34;7251492;19;154009;-57
2022/12/22 10:38:54;;;;;;;;;;;;;;;15.55;52.97;100089.19;7252457;19;153852;-57
2022/12/22 10:41:22;;;;;;;;;;;;;;;15.55;52.97;100087.22;7255791;19;154646;-57
2022/12/22 10:43:50;;;;;;;;;;;;;;;15.55;52.69;100084.44;7260849;19;154670;-57
2022/12/22 10:46:19;;;;;;;;;;;;;;;15.57;53.04;100089.72;7255534;19;153823;-57
2022/12/22 10:48:46;;;;;;;;;;;;;;;15.55;52.77;100089.19;7253344;19;156160;-57
2022/12/22 10:51:14;;;;;;;;;;;;;;;15.55;53.10;100087.22;7253048;19;154622;-57
2022/12/22 10:53:41;;;;;;;;;;;;;;;15.55;52.86;100081.66;7253025;19;152427;-57
2022/12/22 10:56:16;;;;;;;;;;;;;;;15.57;53.13;100081.38;7253481;19;153789;-57
2022/12/22 10:58:46;;;;;;;;;;;;;;;15.57;53.17;100073.84;7254235;19;153933;-57
2022/12/22 11:01:21;;;;;;;;;;;;;;;15.57;53.08;100068.28;7253480;19;155103;-57
2022/12/22 11:03:48;;;;;;;;;;;;;;;15.57;53.25;100062.72;7251232;19;154401;-57
2022/12/22 11:06:15;;;;;;;;;;;;;;;15.58;52.79;100067.13;7257119;19;153520;-57
2022/12/22 11:08:42;;;;;;;;;;;;;;;15.58;53.14;100064.34;7248425;19;154970;-57
2022/12/22 11:11:25;;;;;;;;;;;;;;;15.58;52.88;100066.31;7252609;19;154959;-57
2022/12/22 11:13:55;;;;;;;;;;;;;;;15.60;53.07;100058.50;7254470;19;153750;-57
2022/12/22 11:16:24;;;;;;;;;;;;;;;15.61;53.02;100056.53;7249612;19;154192;-57
2022/12/22 11:18:54;;;;;;;;;;;;;;;15.60;53.29;100052.94;7252357;19;153967;-57
2022/12/22 11:21:29;;;;;;;;;;;;;;;15.61;53.16;100034.28;7250024;19;153957;-57
2022/12/22 11:23:59;;;;;;;;;;;;;;;15.61;52.97;100026.75;7253371;19;153893;-57
2022/12/22 11:26:28;;;;;;;;;;;;;;;15.62;53.08;100017.28;7260338;19;153314;-57
2022/12/22 11:28:56;;;;;;;;;;;;;;;15.62;53.04;100016.44;7252322;19;154159;-57
2022/12/22 11:31:23;;;;;;;;;;;;;;;15.63;53.47;100009.72;7253169;19;154046;-57
2022/12/22 11:33:53;;;;;;;;;;;;;;;15.63;53.24;100018.09;7255187;19;154364;-57
2022/12/22 11:36:22;;;;;;;;;;;;;;;15.63;53.07;100013.34;7250431;19;153784;-57
2022/12/22 11:38:52;;;;;;;;;;;;;;;15.65;53.08;100013.06;7252232;19;153573;-57
2022/12/22 11:41:22;;;;;;;;;;;;;;;15.64;53.59;100014.19;7253849;19;152824;-57
2022/12/22 11:43:52;;;;;;;;;;;;;;;15.64;53.35;100023.38;7252223;19;154280;-57
2022/12/22 11:46:23;;;;;;;;;;;;;;;15.64;53.32;100026.16;7251662;19;152197;-57
2022/12/22 11:48:53;;;;;;;;;;;;;;;15.64;53.20;100026.16;7254272;19;154518;-57
2022/12/22 11:51:23;;;;;;;;;;;;;;;15.65;53.50;100025.03;7248837;19;153743;-57
2022/12/22 11:53:56;;;;;;;;;;;;;;;15.66;53.47;100018.34;7252899;19;154109;-57
2022/12/22 11:56:25;;;;;;;;;;;;;;;15.67;53.45;100016.38;7250716;19;154301;-57
2022/12/22 11:58:55;;;;;;;;;;;;;;;15.65;53.65;100016.69;7248985;19;154101;-57
2022/12/22 12:01:25;;;;;;;;;;;;;;;15.66;53.65;100006.38;7254416;19;154992;-57
2022/12/22 12:03:55;;;;;;;;;;;;;;;15.66;53.83;100001.63;7252336;19;155106;-57
2022/12/22 12:06:23;;;;;;;;;;;;;;;15.67;53.72;99996.91;7246404;19;154336;-57
2022/12/22 12:08:53;;;;;;;;;;;;;;;15.67;53.74;99991.31;7250050;19;152475;-57
2022/12/22 12:11:26;;;;;;;;;;;;;;;15.66;53.84;100000.81;7257636;19;155694;-57
2022/12/22 12:13:56;;;;;;;;;;;;;;;15.66;53.99;99981.31;7249471;19;154350;-57
2022/12/22 12:16:32;;;;;;;;;;;;;;;15.67;53.98;99985.75;7249787;19;152833;-57
2022/12/22 12:19:02;;;;;;;;;;;;;;;15.67;53.84;99974.63;7249435;19;153760;-57
2022/12/22 12:21:33;;;;;;;;;;;;;;;15.67;54.15;99969.06;7247181;19;153583;-57
2022/12/22 12:24:03;;;;;;;;;;;;;;;15.66;54.30;99959.88;7251114;19;153861;-57
2022/12/22 12:26:31;;;;;;;;;;;;;;;15.67;54.28;99952.34;7250683;19;153653;-57
2022/12/22 12:28:59;;;;;;;;;;;;;;;15.68;54.08;99956.75;7250420;19;154292;-57
2022/12/22 12:31:31;;;;;;;;;;;;;;;15.68;54.40;99949.25;7250252;19;155106;-57
2022/12/22 12:34:00;;;;;;;;;;;;;;;15.69;54.04;99950.06;7259498;19;153697;-57
2022/12/22 12:36:36;;;;;;;;;;;;;;;15.69;54.14;99944.50;7245972;19;154410;-57
2022/12/22 12:39:09;;;;;;;;;;;;;;;15.69;54.10;99945.34;7251548;19;154575;-57
2022/12/22 12:41:39;;;;;;;;;;;;;;;15.69;54.21;99944.50;7250726;19;154513;-57
2022/12/22 12:44:11;;;;;;;;;;;;;;;15.68;54.25;99940.88;7249953;19;153339;-57
2022/12/22 12:46:40;;;;;;;;;;;;;;;15.68;54.41;99940.88;7250092;19;153613;-57
2022/12/22 12:49:10;;;;;;;;;;;;;;;15.69;54.54;99933.38;7248355;19;155544;-57
2022/12/22 12:51:40;;;;;;;;;;;;;;;15.70;54.28;99932.25;7247785;19;155335;-57
2022/12/22 12:54:16;;;;;;;;;;;;;;;15.70;54.55;99933.06;7250617;19;152661;-57
2022/12/22 12:56:46;;;;;;;;;;;;;;;15.70;54.67;99921.09;7257632;19;154786;-57
2022/12/22 12:59:33;;;;;;;;;;;;;;;15.70;54.33;99933.06;7251011;19;154013;-57
2022/12/22 13:02:00;;;;;;;;;;;;;;;15.70;54.53;99947.00;7248279;19;152930;-57
2022/12/22 13:04:31;;;;;;;;;;;;;;;15.71;54.57;99942.25;7248642;19;152865;-57
2022/12/22 13:06:58;;;;;;;;;;;;;;;15.71;54.62;99936.69;7245869;19;154294;-57
2022/12/22 13:09:27;;;;;;;;;;;;;;;15.71;54.97;99942.25;7248647;19;153501;-57
2022/12/22 13:12:17;;;;;;;;;;;;;;;15.71;54.71;99942.25;7255571;19;155862;-57
2022/12/22 13:14:53;;;;;;;;;;;;;;;15.70;54.59;99923.88;7252392;19;154426;-57
2022/12/22 13:17:23;;;;;;;;;;;;;;;15.72;54.86;99932.75;7258456;19;153001;-57
2022/12/22 13:19:50;;;;;;;;;;;;;;;15.72;54.80;99935.53;7260285;19;154405;-57
2022/12/22 13:22:17;;;;;;;;;;;;;;;15.70;54.92;99935.88;7255355;19;153737;-56
2022/12/22 13:24:44;;;;;;;;;;;;;;;15.71;54.68;99925.56;7252598;19;153244;-56
2022/12/22 13:27:31;;;;;;;;;;;;;;;15.71;55.10;99920.81;7256960;19;153494;-56
2022/12/22 13:29:58;;;;;;;;;;;;;;;15.73;54.99;99924.13;7256438;19;153849;-56
2022/12/22 13:32:26;;;;;;;;;;;;;;;15.72;55.01;99928.03;7256044;19;154268;-57
2022/12/22 13:34:56;;;;;;;;;;;;;;;15.73;55.23;99929.69;7253095;19;153520;-57
2022/12/22 13:37:45;;;;;;;;;;;;;;;15.73;55.06;99934.41;7255742;19;155970;-56
2022/12/22 13:40:15;;;;;;;;;;;;;;;15.73;55.03;99932.47;7259367;19;154485;-56
2022/12/22 13:42:45;;;;;;;;;;;;;;;15.73;55.20;99926.91;7256628;19;155036;-57
2022/12/22 13:45:15;;;;;;;;;;;;;;;15.72;55.23;99925.22;7255286;19;154430;-56
2022/12/22 13:47:44;;;;;;;;;;;;;;;15.73;55.28;99926.06;7259130;19;153427;-56
2022/12/22 13:50:14;;;;;;;;;;;;;;;15.74;54.98;99925.78;7255193;19;155981;-56
2022/12/22 13:52:41;;;;;;;;;;;;;;;15.73;55.11;99917.72;7256828;19;154335;-56
2022/12/22 13:55:12;;;;;;;;;;;;;;;15.73;55.41;99921.31;7256550;19;154624;-56
2022/12/22 13:57:39;;;;;;;;;;;;;;;15.73;55.39;99924.13;7258678;19;154022;-56
2022/12/22 14:00:16;;;;;;;;;;;;;;;15.74;55.02;99925.78;7256062;19;155679;-56
2022/12/22 14:02:43;;;;;;;;;;;;;;;15.75;55.06;99915.47;7264720;19;154168;-56
2022/12/22 14:05:11;;;;;;;;;;;;;;;15.75;55.42;99929.38;7255640;19;154987;-56
2022/12/22 14:07:38;;;;;;;;;;;;;;;15.75;55.37;99921.03;7252624;19;154164;-56
2022/12/22 14:10:06;;;;;;;;;;;;;;;15.75;55.69;99915.47;7253838;19;152692;-56
2022/12/22 14:12:38;;;;;;;;;;;;;;;15.75;55.38;99907.13;7255811;19;153607;-56
2022/12/22 14:15:08;;;;;;;;;;;;;;;15.74;55.43;99914.63;7254006;19;153464;-56
2022/12/22 14:17:36;;;;;;;;;;;;;;;15.75;55.46;99912.69;7254773;19;153863;-56
2022/12/22 14:20:06;;;;;;;;;;;;;;;15.75;55.48;99913.50;7251315;19;153171;-56
2022/12/22 14:22:36;;;;;;;;;;;;;;;15.76;55.42;99914.34;7253094;19;154023;-56
2022/12/22 14:25:11;;;;;;;;;;;;;;;15.76;55.25;99914.34;7260975;19;153763;-56
2022/12/22 14:27:41;;;;;;;;;;;;;;;15.75;55.43;99915.47;7255125;19;152298;-56
2022/12/22 14:30:11;;;;;;;;;;;;;;;15.75;55.55;99912.69;7254219;19;153749;-56
2022/12/22 14:32:39;;;;;;;;;;;;;;;15.75;55.75;99915.47;7253679;19;154797;-56
2022/12/22 14:35:09;;;;;;;;;;;;;;;15.75;55.57;99915.47;7252195;19;155205;-56
2022/12/22 14:37:36;;;;;;;;;;;;;;;15.75;55.65;99916.31;7255540;19;153999;-56
2022/12/22 14:40:04;;;;;;;;;;;;;;;15.75;55.84;99919.09;7253788;19;154235;-56
2022/12/22 14:42:32;;;;;;;;;;;;;;;15.75;55.57;99909.91;7252850;19;153603;-56
2022/12/22 14:44:59;;;;;;;;;;;;;;;15.75;55.69;99909.91;7254688;19;153634;-56
2022/12/22 14:47:27;;;;;;;;;;;;;;;15.76;55.98;99909.56;7260323;19;155586;-56
2022/12/22 14:49:57;;;;;;;;;;;;;;;15.76;55.98;99908.78;7252038;19;154293;-56
2022/12/22 14:52:24;;;;;;;;;;;;;;;15.75;55.74;99912.69;7252969;19;153512;-56
2022/12/22 14:54:52;;;;;;;;;;;;;;;15.75;55.62;99905.16;7251035;19;154222;-56
2022/12/22 14:57:24;;;;;;;;;;;;;;;15.77;55.97;99918.75;7252370;19;154131;-56
2022/12/22 14:59:54;;;;;;;;;;;;;;;15.77;56.12;99918.75;7252170;19;154063;-56
2022/12/22 15:02:25;;;;;;;;;;;;;;;15.77;56.11;99914.03;7257301;19;154115;-56
2022/12/22 15:05:00;;;;;;;;;;;;;;;15.77;55.68;99921.53;7251583;19;154191;-56
2022/12/22 15:07:27;;;;;;;;;;;;;;;15.78;56.04;99931.56;7251822;19;155581;-57
2022/12/22 15:10:14;;;;;;;;;;;;;;;15.77;55.90;99924.34;7258685;19;153289;-56
2022/12/22 15:12:43;;;;;;;;;;;;;;;15.77;56.13;99924.34;7255094;19;153945;-56
2022/12/22 15:15:13;;;;;;;;;;;;;;;15.77;55.81;99927.94;7255093;19;153252;-56
2022/12/22 15:17:40;;;;;;;;;;;;;;;15.77;55.83;99915.97;7255844;19;153910;-56
2022/12/22 15:20:12;;;;;;;;;;;;;;;15.77;55.81;99918.75;7253788;19;154393;-56
2022/12/22 15:22:39;;;;;;;;;;;;;;;15.76;56.07;99919.91;7256254;19;153403;-56
2022/12/22 15:25:09;;;;;;;;;;;;;;;15.76;56.30;99917.94;7256797;19;154757;-56
2022/12/22 15:27:36;;;;;;;;;;;;;;;15.76;56.33;99917.94;7254970;19;153762;-56
2022/12/22 15:30:04;;;;;;;;;;;;;;;15.77;56.15;99918.75;7252669;19;154469;-56
2022/12/22 15:32:30;;;;;;;;;;;;;;;15.77;56.13;99919.59;7257904;19;153446;-56
2022/12/22 15:35:10;;;;;;;;;;;;;;;15.76;56.17;99917.94;7250362;19;152637;-56
2022/12/22 15:37:37;;;;;;;;;;;;;;;15.75;56.48;99916.31;7252037;19;153312;-56
2022/12/22 15:40:05;;;;;;;;;;;;;;;15.76;56.55;99923.50;7251152;19;153421;-56
2022/12/22 15:42:32;;;;;;;;;;;;;;;15.77;56.42;99929.91;7253133;19;153570;-56
2022/12/22 15:44:59;;;;;;;;;;;;;;;15.76;56.30;99917.13;7252082;19;154290;-56
2022/12/22 15:47:27;;;;;;;;;;;;;;;15.77;56.14;99910.41;7251602;19;153669;-56
2022/12/22 15:49:54;;;;;;;;;;;;;;;15.76;56.63;99917.94;7248933;19;153397;-56
2022/12/22 15:52:21;;;;;;;;;;;;;;;15.77;56.39;99924.34;7257575;19;153661;-56
2022/12/22 15:54:48;;;;;;;;;;;;;;;15.76;56.50;99912.34;7251784;19;153462;-56
2022/12/22 15:57:15;;;;;;;;;;;;;;;15.76;56.53;99908.78;7253212;19;154052;-56
2022/12/22 15:59:42;;;;;;;;;;;;;;;15.77;56.42;99915.97;7248476;19;153974;-56
2022/12/22 16:02:10;;;;;;;;;;;;;;;15.77;56.49;99902.06;7252839;19;153624;-56
2022/12/22 16:04:38;;;;;;;;;;;;;;;15.77;56.55;99908.44;7249118;19;153478;-56
2022/12/22 16:07:05;;;;;;;;;;;;;;;15.77;56.51;99910.41;7247605;19;154339;-56
2022/12/22 16:09:38;;;;;;;;;;;;;;;15.76;56.87;99914.34;7244913;19;156233;-56
2022/12/22 16:12:08;;;;;;;;;;;;;;;15.76;56.55;99915.16;7253361;19;155182;-56
2022/12/22 16:14:36;;;;;;;;;;;;;;;15.77;56.76;99910.41;7258543;19;154504;-56
2022/12/22 16:17:16;;;;;;;;;;;;;;;15.78;56.92;99912.06;7249769;19;154038;-57
2022/12/22 16:19:44;;;;;;;;;;;;;;;15.76;56.60;99906.78;7248756;19;153901;-56
2022/12/22 16:22:12;;;;;;;;;;;;;;;15.77;56.56;99905.66;7249446;19;153753;-57
2022/12/22 16:24:42;;;;;;;;;;;;;;;15.77;57.02;99902.88;7250492;19;152832;-56
2022/12/22 16:27:11;;;;;;;;;;;;;;;15.77;56.72;99914.03;7251365;19;154478;-57